FAMM/MBD METAR and TAF weather

Enter ICAO airport designator
Station Type Date Time Source
FAMM METAR 2020/09/19 02:00 UTC NOAA

FAMM 190200Z AUTO 09004KT //// // ////// 13/M01 Q1022


Station Type Date Time Source
FAMM Decoded METAR 2020/09/19 02:00 UTC NOAA

Mafikeng Intl. Ad, South Africa (FAMM) 25-47S 025-32E 1300M
Sep 18, 2020 - 10:00 PM EDT / 2020.09.19 0200 UTC
Wind: from the E (090 degrees) at 5 MPH (4 KT):0
Temperature: 55 F (13 C)
Dew Point: 30 F (-1 C)
Relative Humidity: 37%
Pressure (altimeter): 30.18 in. Hg (1022 hPa)
ob: FAMM 190200Z AUTO 09004KT //// // ////// 13/M01 Q1022
cycle: 2

Station Type Date Time Source
FAMM TAF 2019/01/01 10:00 UTC NOAA

TAF FAMM 010900Z 0110/0118 04008KT 9999 BKN015
BECMG 0111/0113 34010KT BKN025 TX25/0113Z TN22/0118Z

Example: see airport list